Time;durP1;ratioP1;P1;durP2;ratioP2;P2;SDS_P1;SDS_P2;PMS_P1;PMS_P2;Temp;Humidity;BMP_temperature;BMP_pressure;BME280_temperature;BME280_humidity;BME280_pressure;Samples;Min_cycle;Max_cycle;Signal;HPM_P1;HPM_P2
2021/11/16 00:01:00;;;;;;;36.22;20.50;;;8.90;99.90;;;;;;5069533;28;20250;-83
2021/11/16 00:03:28;;;;;;;34.85;21.58;;;8.90;99.90;;;;;;5057326;28;20249;-82
2021/11/16 00:05:55;;;;;;;35.95;22.17;;;8.80;99.90;;;;;;5054989;28;20283;-81
2021/11/16 00:08:22;;;;;;;34.35;20.13;;;8.80;99.90;;;;;;5059584;28;20207;-82
2021/11/16 00:10:49;;;;;;;35.42;20.42;;;8.70;99.90;;;;;;5060633;28;20218;-81
2021/11/16 00:13:16;;;;;;;36.67;21.05;;;8.90;99.90;;;;;;5062386;28;20236;-80
2021/11/16 00:15:44;;;;;;;35.05;19.95;;;8.70;99.90;;;;;;5057266;28;20387;-82
2021/11/16 00:18:12;;;;;;;34.13;20.00;;;8.50;99.90;;;;;;5056747;28;20207;-82
2021/11/16 00:20:43;;;;;;;31.88;19.73;;;9.00;99.90;;;;;;5056092;28;20449;-82
2021/11/16 00:23:15;;;;;;;30.98;20.27;;;9.00;99.90;;;;;;5055914;28;20322;-82
2021/11/16 00:25:42;;;;;;;35.30;19.92;;;9.00;99.90;;;;;;5056007;28;20565;-82
2021/11/16 00:28:09;;;;;;;30.65;18.88;;;9.00;99.90;;;;;;5055239;28;20237;-82
2021/11/16 00:30:38;;;;;;;34.28;20.55;;;8.90;99.90;;;;;;5056988;28;20218;-82
2021/11/16 00:33:05;;;;;;;34.85;21.05;;;8.90;99.90;;;;;;5060307;28;20227;-82
2021/11/16 00:35:37;;;;;;;33.00;21.15;;;9.00;99.90;;;;;;5066838;28;20215;-81
2021/11/16 00:38:06;;;;;;;37.50;21.55;;;8.60;99.90;;;;;;5070781;28;20199;-82
2021/11/16 00:40:33;;;;;;;36.80;20.40;;;8.80;99.90;;;;;;5066624;28;20203;-82
2021/11/16 00:43:00;;;;;;;37.05;21.38;;;8.90;99.90;;;;;;5056446;28;20231;-82
2021/11/16 00:45:28;;;;;;;35.42;22.30;;;9.20;99.90;;;;;;5056404;28;20202;-82
2021/11/16 00:47:55;;;;;;;38.97;21.42;;;9.00;99.90;;;;;;5074451;28;20216;-81
2021/11/16 00:50:22;;;;;;;41.38;22.45;;;9.00;99.90;;;;;;5061968;28;20240;-81
2021/11/16 00:52:50;;;;;;;34.45;22.02;;;8.90;99.90;;;;;;5067220;28;20231;-82
2021/11/16 00:55:18;;;;;;;36.10;20.95;;;9.00;99.90;;;;;;5055422;28;20270;-82
2021/11/16 00:57:46;;;;;;;35.33;22.55;;;9.00;99.90;;;;;;5055000;28;20206;-82
2021/11/16 01:00:15;;;;;;;39.95;21.35;;;9.00;99.90;;;;;;5055594;28;20206;-82
2021/11/16 01:02:42;;;;;;;32.08;19.30;;;9.00;99.90;;;;;;5055715;28;20270;-82
2021/11/16 01:05:12;;;;;;;35.75;21.85;;;9.10;99.90;;;;;;5059300;28;20234;-82
2021/11/16 01:07:39;;;;;;;35.25;20.65;;;9.10;99.90;;;;;;5064706;28;20220;-82
2021/11/16 01:10:08;;;;;;;36.78;19.98;;;9.10;99.90;;;;;;5062676;28;20208;-83
2021/11/16 01:12:37;;;;;;;36.72;21.95;;;9.00;99.90;;;;;;5059385;28;20236;-82
2021/11/16 01:15:04;;;;;;;34.30;19.92;;;9.00;99.90;;;;;;5059313;28;20208;-82
2021/11/16 01:17:31;;;;;;;31.48;18.92;;;9.20;99.90;;;;;;5059299;28;20294;-82
2021/11/16 01:19:58;;;;;;;33.03;19.60;;;9.00;99.90;;;;;;5059595;28;20237;-82
2021/11/16 01:22:25;;;;;;;35.03;20.10;;;9.10;99.90;;;;;;5058824;28;20227;-82
2021/11/16 01:24:52;;;;;;;34.15;20.95;;;9.10;99.90;;;;;;5059971;28;20207;-82
2021/11/16 01:27:20;;;;;;;34.17;20.15;;;9.00;99.90;;;;;;5059392;28;20238;-82
2021/11/16 01:29:50;;;;;;;28.52;16.77;;;9.00;99.90;;;;;;5060071;28;20208;-82
2021/11/16 01:32:29;;;;;;;32.72;19.35;;;8.70;99.90;;;;;;5060459;28;20555;-82
2021/11/16 01:34:56;;;;;;;31.15;18.15;;;8.70;99.90;;;;;;5059728;28;20268;-82
2021/11/16 01:37:24;;;;;;;37.20;20.13;;;8.90;99.90;;;;;;5059128;28;20204;-82
2021/11/16 01:39:52;;;;;;;31.08;18.80;;;8.60;99.90;;;;;;5070347;28;20222;-82
2021/11/16 01:42:20;;;;;;;34.05;19.65;;;9.10;99.90;;;;;;5058835;28;20312;-82
2021/11/16 01:44:48;;;;;;;30.20;20.73;;;8.90;99.90;;;;;;5059325;28;20211;-82
2021/11/16 01:47:16;;;;;;;29.95;18.33;;;8.90;99.90;;;;;;5058931;28;20239;-81
2021/11/16 01:49:44;;;;;;;36.20;20.48;;;8.60;99.90;;;;;;5059398;28;20578;-82
2021/11/16 01:52:11;;;;;;;33.10;20.20;;;8.90;99.90;;;;;;5061397;28;20320;-81
2021/11/16 01:54:38;;;;;;;32.20;19.27;;;8.90;99.90;;;;;;5066853;28;20303;-81
2021/11/16 01:57:05;;;;;;;36.17;21.08;;;8.50;99.90;;;;;;5058455;28;20671;-82
2021/11/16 01:59:32;;;;;;;29.75;18.85;;;8.90;99.90;;;;;;5058701;28;20215;-82
2021/11/16 02:02:01;;;;;;;35.08;19.48;;;8.90;99.90;;;;;;5058731;28;20207;-80
2021/11/16 02:04:28;;;;;;;32.95;19.60;;;9.00;99.90;;;;;;5058436;28;20283;-82
2021/11/16 02:06:55;;;;;;;32.38;17.85;;;8.70;99.90;;;;;;5058175;28;20226;-82
2021/11/16 02:09:22;;;;;;;30.90;19.15;;;9.00;99.90;;;;;;5059444;28;20212;-81
2021/11/16 02:11:49;;;;;;;31.55;16.23;;;9.00;99.90;;;;;;5062012;28;20204;-80
2021/11/16 02:14:18;;;;;;;28.65;18.13;;;9.10;99.90;;;;;;5074224;28;20425;-81
2021/11/16 02:16:47;;;;;;;29.35;18.13;;;9.10;99.90;;;;;;5062674;28;20201;-81
2021/11/16 02:19:21;;;;;;;30.80;17.20;;;9.10;99.90;;;;;;5058298;28;20219;-81
2021/11/16 02:21:51;;;;;;;29.17;18.83;;;9.00;99.90;;;;;;5056418;28;20199;-80
2021/11/16 02:24:20;;;;;;;31.67;19.65;;;9.00;99.90;;;;;;5056236;28;20235;-80
2021/11/16 02:26:48;;;;;;;29.98;17.40;;;9.00;99.90;;;;;;5058259;28;20688;-81
2021/11/16 02:29:15;;;;;;;32.20;20.10;;;9.00;99.90;;;;;;5057827;28;20743;-82
2021/11/16 02:31:43;;;;;;;35.20;21.05;;;9.10;99.90;;;;;;5061673;28;20207;-81
2021/11/16 02:34:11;;;;;;;32.80;18.13;;;9.00;99.90;;;;;;5057839;28;20231;-81
2021/11/16 02:36:38;;;;;;;34.42;18.40;;;8.60;99.90;;;;;;5057267;28;20665;-81
2021/11/16 02:39:08;;;;;;;29.55;18.95;;;8.80;99.90;;;;;;5058323;28;20648;-81
2021/11/16 02:41:36;;;;;;;25.25;16.80;;;9.00;99.90;;;;;;5057804;28;20187;-81
2021/11/16 02:44:06;;;;;;;27.77;17.73;;;8.80;99.90;;;;;;5058450;28;20594;-83
2021/11/16 02:46:33;;;;;;;26.48;16.83;;;8.80;99.90;;;;;;5058295;28;20219;-80
2021/11/16 02:49:00;;;;;;;31.60;17.50;;;8.80;99.90;;;;;;5057680;28;20297;-81
2021/11/16 02:51:31;;;;;;;30.98;18.48;;;8.50;99.90;;;;;;5057413;28;20218;-81
2021/11/16 02:53:58;;;;;;;30.67;17.92;;;8.90;99.90;;;;;;5058207;28;20232;-81
2021/11/16 02:56:26;;;;;;;31.13;18.17;;;8.80;99.90;;;;;;5057784;28;20210;-81
2021/11/16 02:58:53;;;;;;;30.98;18.63;;;8.90;99.90;;;;;;5058125;28;20225;-80
2021/11/16 03:01:20;;;;;;;33.72;19.90;;;9.10;99.90;;;;;;5057125;28;20217;-80
2021/11/16 03:03:47;;;;;;;34.00;18.90;;;8.80;99.90;;;;;;5056718;28;20232;-80
2021/11/16 03:06:15;;;;;;;32.58;17.67;;;9.10;99.90;;;;;;5057058;28;20575;-80
2021/11/16 03:08:42;;;;;;;31.52;18.80;;;8.70;99.90;;;;;;5057520;28;20220;-81
2021/11/16 03:11:10;;;;;;;29.67;17.48;;;9.10;99.90;;;;;;5056933;28;20211;-81
2021/11/16 03:13:39;;;;;;;29.35;17.10;;;8.60;99.90;;;;;;5056853;28;20267;-81
2021/11/16 03:16:08;;;;;;;28.48;18.35;;;8.90;99.90;;;;;;5068025;28;20209;-79
2021/11/16 03:18:34;;;;;;;28.30;17.15;;;9.10;99.90;;;;;;5069027;28;20205;-80
2021/11/16 03:21:01;;;;;;;30.50;18.05;;;9.10;99.90;;;;;;5066825;28;20210;-79
2021/11/16 03:23:28;;;;;;;30.42;17.55;;;9.20;99.90;;;;;;5061684;28;20235;-80
2021/11/16 03:25:57;;;;;;;30.17;17.70;;;9.20;99.90;;;;;;5057211;28;20208;-81
2021/11/16 03:28:27;;;;;;;31.00;19.15;;;9.20;99.90;;;;;;5062175;28;20590;-79
2021/11/16 03:30:59;;;;;;;29.92;18.35;;;9.20;99.90;;;;;;5065728;28;20221;-80
2021/11/16 03:33:28;;;;;;;31.40;18.58;;;9.20;99.90;;;;;;5067041;28;20239;-81
2021/11/16 03:35:55;;;;;;;30.75;18.80;;;9.10;99.90;;;;;;5057575;28;20535;-81
2021/11/16 03:38:23;;;;;;;28.92;19.02;;;9.30;99.90;;;;;;5057429;28;20200;-82
2021/11/16 03:40:52;;;;;;;29.73;18.27;;;9.00;99.90;;;;;;5058406;28;20211;-83
2021/11/16 03:43:19;;;;;;;28.73;17.35;;;9.00;99.90;;;;;;5059053;28;20244;-81
2021/11/16 03:45:46;;;;;;;33.42;19.92;;;9.10;99.90;;;;;;5059272;28;20203;-82
2021/11/16 03:48:14;;;;;;;32.45;19.35;;;9.00;99.90;;;;;;5065851;28;20225;-81
2021/11/16 03:50:41;;;;;;;30.75;19.13;;;8.80;99.90;;;;;;5057344;28;20213;-81
2021/11/16 03:53:10;;;;;;;31.67;18.10;;;8.90;99.90;;;;;;5061484;28;20262;-81
2021/11/16 03:55:41;;;;;;;32.30;19.27;;;8.80;99.90;;;;;;5065337;28;20579;-82
2021/11/16 03:58:09;;;;;;;29.15;17.60;;;8.90;99.90;;;;;;5070317;28;20649;-81
2021/11/16 04:00:38;;;;;;;30.95;19.05;;;8.90;99.90;;;;;;5057262;28;20211;-82
2021/11/16 04:03:06;;;;;;;31.80;19.60;;;8.60;99.90;;;;;;5061065;28;20232;-82
2021/11/16 04:05:35;;;;;;;38.08;18.88;;;8.60;99.90;;;;;;5067953;28;20303;-82
2021/11/16 04:08:01;;;;;;;32.15;19.35;;;8.70;99.90;;;;;;5057621;28;20227;-82
2021/11/16 04:10:28;;;;;;;29.50;18.52;;;8.90;99.90;;;;;;5057319;28;20343;-81
2021/11/16 04:12:55;;;;;;;30.88;17.05;;;8.60;99.90;;;;;;5084873;22;20230;-79
2021/11/16 04:15:25;;;;;;;31.55;18.63;;;8.70;99.90;;;;;;5075378;28;20577;-79
2021/11/16 04:17:53;;;;;;;33.17;19.30;;;8.50;99.90;;;;;;5077165;28;20294;-79
2021/11/16 04:20:21;;;;;;;28.55;18.70;;;8.40;99.90;;;;;;5076173;28;20213;-79
2021/11/16 04:22:50;;;;;;;30.75;18.17;;;8.50;99.90;;;;;;5075397;28;20813;-78
2021/11/16 04:25:17;;;;;;;34.17;19.25;;;8.50;99.90;;;;;;5075497;28;20207;-78
2021/11/16 04:27:45;;;;;;;26.25;16.58;;;8.50;99.90;;;;;;5075759;28;20222;-78
2021/11/16 04:30:14;;;;;;;30.02;17.05;;;8.50;99.90;;;;;;5075192;28;20215;-78
2021/11/16 04:32:42;;;;;;;30.30;18.10;;;8.60;99.90;;;;;;5077988;28;20246;-78
2021/11/16 04:35:10;;;;;;;29.15;18.17;;;8.60;99.90;;;;;;5077125;28;20242;-78
2021/11/16 04:37:38;;;;;;;35.35;18.80;;;8.50;99.90;;;;;;5075010;28;20304;-78
2021/11/16 04:40:08;;;;;;;29.73;17.98;;;8.60;99.90;;;;;;5077540;28;20210;-79
2021/11/16 04:42:36;;;;;;;33.20;19.80;;;8.60;99.90;;;;;;5080051;28;20206;-79
2021/11/16 04:45:03;;;;;;;30.70;18.00;;;8.60;99.90;;;;;;5084845;28;20341;-79
2021/11/16 04:47:33;;;;;;;29.80;17.85;;;8.50;99.90;;;;;;5097815;28;20234;-79
2021/11/16 04:50:07;;;;;;;28.80;16.88;;;8.70;99.90;;;;;;5083460;28;20198;-79
2021/11/16 04:52:40;;;;;;;29.65;16.90;;;8.70;99.90;;;;;;5082055;28;20187;-79
2021/11/16 04:55:29;;;;;;;31.25;17.83;;;8.60;99.90;;;;;;5079580;28;20185;-79
2021/11/16 05:03:30;;;;;;;35.92;17.83;;;8.50;99.90;;;;;;5022243;28;20803;-79
2021/11/16 05:05:57;;;;;;;29.52;16.70;;;8.50;99.90;;;;;;5079308;28;20194;-79
2021/11/16 05:08:24;;;;;;;33.70;18.80;;;8.40;99.90;;;;;;5078759;28;20614;-78
2021/11/16 05:10:52;;;;;;;29.45;18.58;;;8.50;99.90;;;;;;5079067;28;20218;-79
2021/11/16 05:13:19;;;;;;;33.10;16.60;;;8.50;99.90;;;;;;5079026;28;20242;-79
2021/11/16 05:15:46;;;;;;;29.92;17.08;;;8.50;99.90;;;;;;5081683;28;20260;-79
2021/11/16 05:18:12;;;;;;;28.75;16.88;;;8.60;99.90;;;;;;5085709;28;20214;-79
2021/11/16 05:20:39;;;;;;;30.20;18.00;;;8.50;99.90;;;;;;5083942;28;20221;-79
2021/11/16 05:23:07;;;;;;;31.95;17.17;;;8.40;99.90;;;;;;5079422;28;20231;-79
2021/11/16 05:25:34;;;;;;;33.67;18.33;;;8.50;99.90;;;;;;5078909;28;20210;-79
2021/11/16 05:28:05;;;;;;;32.17;18.60;;;8.60;99.90;;;;;;5079822;28;20225;-79
2021/11/16 05:30:35;;;;;;;34.92;18.27;;;8.40;99.90;;;;;;5079600;28;20194;-79
2021/11/16 05:33:02;;;;;;;32.03;18.73;;;8.20;99.90;;;;;;5079231;28;20317;-79
2021/11/16 05:35:29;;;;;;;33.67;19.10;;;8.50;99.90;;;;;;5084181;28;20661;-79
2021/11/16 05:37:56;;;;;;;30.98;17.83;;;8.40;99.90;;;;;;5093055;28;20221;-79
2021/11/16 05:40:22;;;;;;;32.10;18.00;;;8.40;99.90;;;;;;5082269;28;20217;-78
2021/11/16 05:42:49;;;;;;;31.55;17.90;;;8.30;99.90;;;;;;5080613;28;20231;-78
2021/11/16 05:45:17;;;;;;;34.25;17.77;;;8.30;99.90;;;;;;5081363;28;20206;-79
2021/11/16 05:47:44;;;;;;;36.40;19.02;;;8.40;99.90;;;;;;5078536;28;20204;-78
2021/11/16 05:50:13;;;;;;;32.28;17.33;;;8.40;99.90;;;;;;5078006;28;20215;-79
2021/11/16 05:52:40;;;;;;;30.90;18.45;;;8.70;99.90;;;;;;5077234;28;20227;-78
2021/11/16 05:55:08;;;;;;;30.85;18.08;;;8.20;99.90;;;;;;5079505;28;20302;-78
2021/11/16 05:57:36;;;;;;;28.33;17.30;;;8.50;99.90;;;;;;5082848;28;20208;-78
2021/11/16 06:00:05;;;;;;;28.73;17.63;;;8.30;99.90;;;;;;5080940;28;20238;-79
2021/11/16 06:02:33;;;;;;;26.10;15.07;;;8.30;99.90;;;;;;5079595;28;20214;-79
2021/11/16 06:05:00;;;;;;;32.67;18.17;;;8.40;99.90;;;;;;5078876;28;20207;-79
2021/11/16 06:07:27;;;;;;;30.88;17.55;;;8.30;99.90;;;;;;5079676;28;20210;-79
2021/11/16 06:09:53;;;;;;;27.02;15.85;;;8.30;99.90;;;;;;5087418;28;20237;-79
2021/11/16 06:12:20;;;;;;;32.53;19.13;;;8.40;99.90;;;;;;5094489;28;20205;-78
2021/11/16 06:14:47;;;;;;;30.55;18.23;;;8.10;99.90;;;;;;5087501;28;20276;-80
2021/11/16 06:17:14;;;;;;;30.55;19.13;;;8.20;99.90;;;;;;5088986;28;20250;-79
2021/11/16 06:19:44;;;;;;;29.52;17.58;;;8.30;99.90;;;;;;5086314;28;20709;-79
2021/11/16 06:22:10;;;;;;;30.58;17.48;;;8.10;99.90;;;;;;5079151;28;20330;-79
2021/11/16 06:24:38;;;;;;;29.05;17.70;;;8.40;99.90;;;;;;5079895;28;20637;-79
2021/11/16 06:27:06;;;;;;;32.40;17.48;;;8.30;99.90;;;;;;5082121;28;20211;-79
2021/11/16 06:29:32;;;;;;;27.00;15.50;;;8.20;99.90;;;;;;5078445;28;20283;-78
2021/11/16 06:32:00;;;;;;;31.17;17.70;;;8.40;99.90;;;;;;5077589;28;20211;-80
2021/11/16 06:34:27;;;;;;;32.17;18.75;;;8.20;99.90;;;;;;5077314;28;20250;-78
2021/11/16 06:36:55;;;;;;;28.27;17.73;;;8.20;99.90;;;;;;5077792;28;20211;-79
2021/11/16 06:39:23;;;;;;;27.70;16.13;;;8.20;99.90;;;;;;5078294;28;20198;-80
2021/11/16 06:41:51;;;;;;;26.23;15.50;;;8.40;99.90;;;;;;5077049;28;20206;-79
2021/11/16 06:44:21;;;;;;;27.13;16.52;;;8.30;99.90;;;;;;5077711;28;20229;-78
2021/11/16 06:46:50;;;;;;;27.33;17.35;;;8.30;99.90;;;;;;5077514;28;20192;-79
2021/11/16 06:49:17;;;;;;;28.50;15.38;;;8.20;99.90;;;;;;5077776;28;20233;-81
2021/11/16 06:51:47;;;;;;;27.65;14.73;;;8.00;99.90;;;;;;5078621;28;20212;-79
2021/11/16 06:54:17;;;;;;;29.38;15.38;;;8.20;99.90;;;;;;5077490;28;20603;-79
2021/11/16 06:56:48;;;;;;;26.55;14.15;;;8.10;99.90;;;;;;5077341;28;20194;-79
2021/11/16 06:59:15;;;;;;;24.90;14.77;;;8.20;99.90;;;;;;5077557;28;20550;-79
2021/11/16 07:01:42;;;;;;;28.60;14.77;;;8.20;99.90;;;;;;5078031;28;20224;-79
2021/11/16 10:38:57;;;;;;;12.98;8.27;;;8.00;99.90;;;;;;5076823;28;20639;-80
2021/11/16 10:41:25;;;;;;;12.48;8.55;;;9.00;99.90;;;;;;5092986;23;20244;-81
2021/11/16 10:43:55;;;;;;;14.27;8.88;;;8.90;99.90;;;;;;5056531;28;20223;-82
2021/11/16 10:46:26;;;;;;;13.43;8.45;;;8.90;99.90;;;;;;5066282;28;20270;-82
2021/11/16 10:48:55;;;;;;;14.13;9.32;;;8.80;99.90;;;;;;5064133;28;20223;-81
2021/11/16 10:51:27;;;;;;;13.80;8.48;;;8.80;99.90;;;;;;5060149;28;20239;-80
2021/11/16 10:53:57;;;;;;;15.80;8.75;;;8.90;99.90;;;;;;5075025;28;20207;-81
2021/11/16 10:56:25;;;;;;;11.43;7.30;;;8.70;99.90;;;;;;5075942;28;20211;-81
2021/11/16 10:58:53;;;;;;;13.18;7.70;;;8.80;99.90;;;;;;5084082;28;20553;-80
2021/11/16 11:01:22;;;;;;;12.65;7.28;;;8.70;99.90;;;;;;5082343;28;20307;-80
2021/11/16 11:03:52;;;;;;;14.15;7.43;;;8.80;99.90;;;;;;5076098;28;20652;-80
2021/11/16 11:06:20;;;;;;;14.23;7.22;;;8.80;99.90;;;;;;5073490;28;20324;-82
2021/11/16 11:08:50;;;;;;;13.93;7.93;;;8.80;99.90;;;;;;5073542;28;20211;-81
2021/11/16 11:11:24;;;;;;;11.27;6.60;;;8.90;99.90;;;;;;5074738;28;20301;-81
2021/11/16 11:13:55;;;;;;;11.98;7.03;;;8.90;99.90;;;;;;5075958;28;20597;-79
2021/11/16 11:16:23;;;;;;;12.15;7.13;;;9.10;99.90;;;;;;5076607;28;20524;-81
2021/11/16 11:18:51;;;;;;;11.60;5.78;;;9.10;99.90;;;;;;5074339;28;20298;-82
2021/11/16 11:21:34;;;;;;;14.65;7.85;;;9.00;99.90;;;;;;5073605;28;20660;-80
2021/11/16 11:24:07;;;;;;;18.23;8.70;;;8.80;99.90;;;;;;5074570;28;20210;-82
2021/11/16 11:26:40;;;;;;;23.17;9.75;;;8.70;99.90;;;;;;5073696;28;20495;-80
2021/11/16 11:29:22;;;;;;;12.27;8.10;;;8.50;99.90;;;;;;5076459;28;20191;-79
2021/11/16 11:31:52;;;;;;;16.30;8.70;;;8.50;99.90;;;;;;5071989;28;20252;-80
2021/11/16 11:34:19;;;;;;;14.18;7.10;;;8.50;99.90;;;;;;5072614;28;20231;-79
2021/11/16 11:36:46;;;;;;;12.85;7.53;;;8.60;99.90;;;;;;5072246;28;20297;-80
2021/11/16 11:39:22;;;;;;;18.55;7.45;;;8.60;99.90;;;;;;5063699;28;20208;-80
2021/11/16 11:41:54;;;;;;;15.20;9.40;;;8.60;99.90;;;;;;5061798;28;20236;-78
2021/11/16 11:44:21;;;;;;;11.63;6.72;;;8.60;99.90;;;;;;5058440;28;20196;-78
2021/11/16 11:46:55;;;;;;;11.45;6.88;;;8.60;99.90;;;;;;5058311;28;20242;-79
2021/11/16 11:49:23;;;;;;;14.18;6.95;;;8.50;99.90;;;;;;5057784;28;20649;-80
2021/11/16 11:51:50;;;;;;;13.30;6.60;;;8.50;99.90;;;;;;5059750;28;20263;-80
2021/11/16 11:54:18;;;;;;;11.68;6.88;;;8.40;99.90;;;;;;5062216;28;20194;-81
2021/11/16 11:56:46;;;;;;;12.75;6.80;;;8.40;99.90;;;;;;5064377;28;20225;-81
2021/11/16 11:59:15;;;;;;;10.40;6.45;;;8.50;99.90;;;;;;5060322;28;20207;-80
2021/11/16 12:01:42;;;;;;;13.45;7.75;;;8.50;99.90;;;;;;5060700;28;20408;-84
2021/11/16 12:04:11;;;;;;;14.20;6.65;;;8.50;99.90;;;;;;5061550;28;20643;-83
2021/11/16 12:06:39;;;;;;;16.23;7.13;;;8.60;99.90;;;;;;5060742;28;20213;-83
2021/11/16 12:09:08;;;;;;;15.52;7.10;;;8.60;99.90;;;;;;5060921;28;20233;-84
2021/11/16 12:11:35;;;;;;;13.35;7.20;;;8.60;99.90;;;;;;5061318;28;20264;-85
2021/11/16 12:14:09;;;;;;;10.95;5.80;;;8.60;99.90;;;;;;5061069;28;20211;-83
2021/11/16 12:16:44;;;;;;;13.55;6.90;;;8.50;99.90;;;;;;5060365;28;20286;-84
2021/11/16 12:19:13;;;;;;;13.57;6.43;;;8.50;99.90;;;;;;5061009;28;20576;-84
2021/11/16 12:21:42;;;;;;;12.82;7.10;;;8.70;99.90;;;;;;5061317;28;20257;-84
2021/11/16 12:24:11;;;;;;;9.90;5.95;;;8.70;99.90;;;;;;5060802;28;20212;-82
2021/11/16 12:26:55;;;;;;;10.85;6.20;;;8.70;99.90;;;;;;5058778;28;20211;-82
2021/11/16 12:29:24;;;;;;;10.40;6.80;;;8.60;99.90;;;;;;5059310;28;20393;-81
2021/11/16 12:31:53;;;;;;;10.82;6.20;;;8.60;99.90;;;;;;5065242;28;20390;-80
2021/11/16 12:34:35;;;;;;;14.98;9.45;;;8.50;99.90;;;;;;5059022;28;20211;-80
2021/11/16 12:37:03;;;;;;;14.38;6.78;;;8.50;99.90;;;;;;5060196;28;20227;-81
2021/11/16 12:39:30;;;;;;;11.05;6.00;;;8.50;99.90;;;;;;5066624;28;20218;-81
2021/11/16 12:42:09;;;;;;;10.48;6.63;;;8.50;99.90;;;;;;5063906;28;20238;-78
2021/11/16 12:44:44;;;;;;;13.05;7.63;;;8.60;99.90;;;;;;5057213;28;20223;-78
2021/11/16 12:47:15;;;;;;;10.75;6.50;;;8.60;99.90;;;;;;5059143;28;20207;-79
2021/11/16 12:49:43;;;;;;;12.05;6.78;;;8.50;99.90;;;;;;5064695;28;20243;-80
2021/11/16 12:52:12;;;;;;;10.52;5.88;;;8.60;99.90;;;;;;5073243;28;20234;-81
2021/11/16 12:54:39;;;;;;;9.98;6.07;;;8.50;99.90;;;;;;5064166;28;20243;-82
2021/11/16 12:57:17;;;;;;;12.20;6.20;;;8.60;99.90;;;;;;5059102;28;20228;-83
2021/11/16 13:00:04;;;;;;;13.18;6.45;;;8.50;99.90;;;;;;5067105;28;20255;-83
2021/11/16 13:02:36;;;;;;;11.95;6.57;;;8.50;99.90;;;;;;5069528;28;20306;-81
2021/11/16 13:05:07;;;;;;;10.18;6.45;;;8.60;99.90;;;;;;5059058;28;20623;-83
2021/11/16 13:07:35;;;;;;;10.85;6.63;;;8.60;99.90;;;;;;5059094;28;20231;-81
2021/11/16 13:10:10;;;;;;;16.02;9.50;;;8.60;99.90;;;;;;5060552;28;20212;-79
2021/11/16 13:12:39;;;;;;;11.45;6.72;;;8.60;99.90;;;;;;5055995;28;20229;-79
2021/11/16 13:15:09;;;;;;;13.85;8.52;;;8.70;99.90;;;;;;5056892;28;20624;-81
2021/11/16 13:17:53;;;;;;;8.95;5.78;;;8.70;99.90;;;;;;5057298;28;20223;-79
2021/11/16 13:20:31;;;;;;;14.95;6.40;;;8.70;99.90;;;;;;5058213;28;20203;-81
2021/11/16 13:23:01;;;;;;;10.40;6.10;;;8.70;99.90;;;;;;5060599;28;20231;-81
2021/11/16 13:25:49;;;;;;;10.32;6.18;;;8.60;99.90;;;;;;5062175;28;20196;-81
2021/11/16 13:28:57;;;;;;;13.57;7.10;;;8.60;99.90;;;;;;5061995;28;20214;-84
2021/11/16 13:31:40;;;;;;;12.90;7.30;;;8.60;99.90;;;;;;5060607;28;20237;-83
2021/11/16 13:34:12;;;;;;;11.18;7.03;;;8.60;99.90;;;;;;5059100;28;20653;-82
2021/11/16 13:36:43;;;;;;;13.70;7.47;;;8.60;99.90;;;;;;5060276;28;20200;-82
2021/11/16 13:39:13;;;;;;;10.00;6.60;;;8.60;99.90;;;;;;5057584;28;20207;-82
2021/11/16 13:41:47;;;;;;;13.55;6.78;;;8.60;99.90;;;;;;5057946;28;20353;-82
2021/11/16 13:44:16;;;;;;;11.85;6.78;;;8.50;99.90;;;;;;5057183;28;20191;-82
2021/11/16 13:46:45;;;;;;;11.73;6.88;;;8.50;99.90;;;;;;5057195;28;20203;-83
2021/11/16 13:49:20;;;;;;;10.15;6.63;;;8.60;99.90;;;;;;5059049;28;20211;-83
2021/11/16 13:51:47;;;;;;;11.05;6.00;;;8.60;99.90;;;;;;5058661;28;20285;-83
2021/11/16 13:54:15;;;;;;;9.82;5.60;;;8.70;99.90;;;;;;5058672;28;20288;-81
2021/11/16 13:56:44;;;;;;;11.90;6.10;;;9.00;99.90;;;;;;5057122;28;20249;-81
2021/11/16 13:59:17;;;;;;;12.05;6.80;;;9.00;99.90;;;;;;5059165;28;20717;-80
2021/11/16 14:01:44;;;;;;;12.05;7.03;;;9.00;99.90;;;;;;5060046;28;20240;-83
2021/11/16 14:04:15;;;;;;;11.63;6.28;;;8.90;99.90;;;;;;5060805;28;20254;-84
2021/11/16 14:06:42;;;;;;;11.75;7.22;;;9.00;99.90;;;;;;5060271;28;20270;-83
2021/11/16 14:09:14;;;;;;;12.20;7.50;;;8.80;99.90;;;;;;5061157;28;20210;-83
2021/11/16 14:11:59;;;;;;;12.55;6.45;;;8.80;99.90;;;;;;5059325;28;20276;-84
2021/11/16 14:14:28;;;;;;;11.25;6.93;;;8.80;99.90;;;;;;5060645;28;20223;-83
2021/11/16 14:16:56;;;;;;;9.15;6.30;;;9.00;99.90;;;;;;5059178;28;20258;-83
2021/11/16 14:19:26;;;;;;;11.73;7.32;;;9.00;99.90;;;;;;5062617;28;20223;-83
2021/11/16 14:21:54;;;;;;;10.98;6.85;;;9.00;99.90;;;;;;5061985;28;20255;-85
2021/11/16 14:24:29;;;;;;;9.57;6.35;;;8.90;99.90;;;;;;5061941;28;20286;-84
2021/11/16 14:26:57;;;;;;;13.05;7.20;;;8.80;99.90;;;;;;5060105;28;20235;-83
2021/11/16 14:29:24;;;;;;;11.32;7.18;;;8.70;99.90;;;;;;5056674;28;20291;-83
2021/11/16 14:31:51;;;;;;;10.68;6.57;;;8.80;99.90;;;;;;5057585;28;20242;-83
2021/11/16 14:34:20;;;;;;;13.77;7.03;;;8.70;99.90;;;;;;5071259;28;20265;-82
2021/11/16 14:36:54;;;;;;;11.93;7.32;;;8.70;99.90;;;;;;5068702;28;20207;-82
2021/11/16 14:39:26;;;;;;;11.32;6.95;;;8.70;99.90;;;;;;5057769;28;20224;-81
2021/11/16 14:41:57;;;;;;;13.52;8.13;;;8.60;99.90;;;;;;5057002;28;20302;-79
2021/11/16 14:44:26;;;;;;;10.70;7.43;;;8.60;99.90;;;;;;5060375;28;20200;-80
2021/11/16 14:46:55;;;;;;;13.20;8.07;;;8.60;99.90;;;;;;5067204;28;20217;-80
2021/11/16 14:49:24;;;;;;;16.70;8.50;;;8.60;99.90;;;;;;5059380;28;20280;-80
2021/11/16 14:51:54;;;;;;;11.90;7.32;;;8.60;99.90;;;;;;5061902;28;20237;-81
2021/11/16 14:54:22;;;;;;;10.88;6.57;;;8.60;99.90;;;;;;5060390;28;20208;-81
2021/11/16 14:56:50;;;;;;;10.30;6.20;;;8.70;99.90;;;;;;5057056;28;20635;-80
2021/11/16 14:59:20;;;;;;;9.43;6.90;;;9.00;99.90;;;;;;5056863;28;20678;-81
2021/11/16 15:01:51;;;;;;;9.93;6.72;;;8.90;99.90;;;;;;5057239;28;20279;-81
2021/11/16 15:04:22;;;;;;;11.60;6.68;;;9.00;99.90;;;;;;5056929;28;20192;-79
2021/11/16 15:06:49;;;;;;;11.25;7.10;;;9.00;99.90;;;;;;5057559;28;20202;-81
2021/11/16 15:09:20;;;;;;;10.70;6.65;;;9.00;99.90;;;;;;5056092;28;20787;-81
2021/11/16 15:11:49;;;;;;;9.57;6.15;;;9.00;99.90;;;;;;5056477;28;20239;-81
2021/11/16 15:14:18;;;;;;;11.20;6.78;;;9.10;99.90;;;;;;5058868;28;20298;-79
2021/11/16 15:16:48;;;;;;;10.82;6.20;;;9.00;99.90;;;;;;5059059;28;20729;-80
2021/11/16 15:19:20;;;;;;;11.30;5.53;;;9.10;99.90;;;;;;5059842;28;20224;-81
2021/11/16 15:21:58;;;;;;;10.27;6.13;;;8.80;99.90;;;;;;5060413;28;20227;-80
2021/11/16 15:27:24;;;;;;;9.38;5.80;;;9.00;99.90;;;;;;5055166;28;20272;-80
2021/11/16 15:30:15;;;;;;;10.75;6.45;;;9.00;99.90;;;;;;5058650;28;20227;-80
2021/11/16 15:32:56;;;;;;;12.00;6.93;;;9.20;99.90;;;;;;5058615;28;20223;-80
2021/11/16 15:36:01;;;;;;;10.30;6.03;;;9.20;99.90;;;;;;5060902;28;20216;-81
2021/11/16 15:38:37;;;;;;;9.23;5.68;;;9.10;99.90;;;;;;5068081;28;20226;-81
2021/11/16 15:41:12;;;;;;;11.40;5.60;;;9.00;99.90;;;;;;5069585;28;20315;-80
2021/11/16 15:46:48;;;;;;;9.35;6.43;;;9.20;99.90;;;;;;5047566;28;20200;-83
2021/11/16 15:49:24;;;;;;;10.07;5.97;;;9.20;99.90;;;;;;5062177;28;20250;-82
2021/11/16 15:52:02;;;;;;;10.70;7.05;;;9.10;99.90;;;;;;5061829;28;20254;-82
2021/11/16 15:57:30;;;;;;;10.55;6.43;;;9.00;99.90;;;;;;5075170;28;20208;-83
2021/11/16 15:59:59;;;;;;;11.82;6.82;;;9.10;99.90;;;;;;5072940;28;20219;-81
2021/11/16 16:02:27;;;;;;;10.60;6.97;;;9.20;99.90;;;;;;5071610;28;20232;-79
2021/11/16 16:05:15;;;;;;;11.48;6.68;;;9.00;99.90;;;;;;5061962;28;20579;-80
2021/11/16 16:07:54;;;;;;;9.63;6.22;;;8.80;99.90;;;;;;5060998;28;20223;-81
2021/11/16 16:10:28;;;;;;;8.93;6.13;;;9.10;99.90;;;;;;5064138;28;20196;-83
2021/11/16 16:12:57;;;;;;;9.20;6.22;;;9.00;99.90;;;;;;5059010;28;20280;-79
2021/11/16 16:15:29;;;;;;;11.07;6.85;;;9.10;99.90;;;;;;5058645;28;20294;-79
2021/11/16 16:17:55;;;;;;;8.90;5.70;;;9.00;99.90;;;;;;5060252;28;20306;-79
2021/11/16 16:20:23;;;;;;;11.00;6.65;;;9.10;99.90;;;;;;5062782;28;20210;-81
2021/11/16 16:22:51;;;;;;;10.07;6.40;;;8.90;99.90;;;;;;5059730;28;20322;-80
2021/11/16 16:25:18;;;;;;;17.35;12.77;;;9.00;99.90;;;;;;5057625;28;20212;-79
2021/11/16 16:27:47;;;;;;;10.73;6.22;;;9.00;99.90;;;;;;5059533;28;20231;-82
2021/11/16 16:30:15;;;;;;;12.23;6.18;;;9.10;99.90;;;;;;5060233;28;20369;-80
2021/11/16 16:32:42;;;;;;;12.50;6.97;;;9.20;99.90;;;;;;5060297;28;20232;-84
2021/11/16 16:35:09;;;;;;;9.43;5.55;;;9.00;99.90;;;;;;5058416;28;20280;-81
2021/11/16 16:37:36;;;;;;;9.93;6.43;;;8.90;99.90;;;;;;5059346;28;20204;-80
2021/11/16 16:40:05;;;;;;;10.85;6.13;;;9.00;99.90;;;;;;5063800;28;20236;-81
2021/11/16 16:42:32;;;;;;;12.70;6.60;;;8.80;99.90;;;;;;5062840;23;20243;-82
2021/11/16 16:44:59;;;;;;;9.35;6.40;;;8.70;99.90;;;;;;5046791;28;20197;-80